Time;durP1;ratioP1;P1;durP2;ratioP2;P2;SDS_P1;SDS_P2;PMS_P1;PMS_P2;Temp;Humidity;BMP_temperature;BMP_pressure;BME280_temperature;BME280_humidity;BME280_pressure;Samples;Min_cycle;Max_cycle;Signal;HPM_P1;HPM_P2
2023/07/04 00:01:05;;;;;;;5.70;5.20;;;;;;;24.78;51.50;95057.28;6162767;28;109793;-72
2023/07/04 00:04:11;;;;;;;5.67;5.13;;;;;;;24.85;51.35;95062.91;6173348;28;109154;-71
2023/07/04 00:07:14;;;;;;;5.43;5.03;;;;;;;24.87;51.50;95065.28;6162752;28;109061;-71
2023/07/04 00:10:17;;;;;;;5.60;5.10;;;;;;;24.90;51.27;95070.00;6163194;28;109941;-70
2023/07/04 00:13:21;;;;;;;5.67;5.10;;;;;;;24.91;51.11;95072.34;6172890;28;109513;-71
2023/07/04 00:16:24;;;;;;;5.77;5.27;;;;;;;24.90;51.52;95072.66;6169265;28;111702;-71
2023/07/04 00:19:29;;;;;;;5.80;5.30;;;;;;;24.89;51.39;95076.44;6188117;28;109338;-71
2023/07/04 00:22:33;;;;;;;6.10;5.60;;;;;;;24.92;51.10;95076.59;6166117;28;109047;-71
2023/07/04 00:25:36;;;;;;;5.93;5.53;;;;;;;24.90;51.12;95070.78;6182478;28;109091;-71
2023/07/04 00:28:41;;;;;;;6.47;5.87;;;;;;;24.75;51.39;95072.09;6160749;28;109098;-71
2023/07/04 00:31:44;;;;;;;6.20;5.70;;;;;;;24.70;51.07;95074.19;6157837;28;109774;-70
2023/07/04 00:34:48;;;;;;;6.10;5.60;;;;;;;24.68;51.33;95081.72;6161002;28;109788;-71
2023/07/04 00:37:51;;;;;;;6.13;5.63;;;;;;;24.74;50.91;95075.09;6164466;28;109117;-65
2023/07/04 00:40:55;;;;;;;6.23;5.83;;;;;;;24.65;51.21;95074.31;6172851;28;109371;-65
2023/07/04 00:44:00;;;;;;;6.77;6.20;;;;;;;24.59;51.41;95073.72;6174832;28;110292;-66
2023/07/04 00:47:11;;;;;;;5.70;5.30;;;;;;;24.56;51.32;95068.22;6161680;28;109081;-66
2023/07/04 00:50:19;;;;;;;5.77;5.27;;;;;;;24.51;51.74;95066.47;6177980;28;109113;-65
2023/07/04 00:53:23;;;;;;;5.77;5.37;;;;;;;24.56;51.24;95070.91;6168440;28;108900;-66
2023/07/04 00:56:29;;;;;;;6.20;5.70;;;;;;;24.49;51.56;95072.16;6162430;28;109655;-66
2023/07/04 00:59:34;;;;;;;6.53;6.03;;;;;;;24.51;51.49;95066.47;6177826;28;108967;-66
2023/07/04 01:02:37;;;;;;;6.17;5.47;;;;;;;24.54;51.28;95073.09;6165810;28;108960;-66
2023/07/04 01:05:50;;;;;;;6.13;5.63;;;;;;;24.56;51.50;95062.88;6167729;28;109167;-64
2023/07/04 01:08:58;;;;;;;5.70;5.20;;;;;;;24.66;50.98;95081.22;6158695;28;109319;-67
2023/07/04 01:12:03;;;;;;;6.37;5.87;;;;;;;24.64;51.37;95070.84;6213804;28;109421;-67
2023/07/04 01:15:09;;;;;;;5.70;5.30;;;;;;;24.64;51.23;95080.75;6199686;28;110069;-66
2023/07/04 01:18:13;;;;;;;6.33;5.60;;;;;;;24.50;51.27;95072.94;6158553;28;109767;-66
2023/07/04 01:21:21;;;;;;;8.67;5.87;;;;;;;24.47;51.34;95077.03;6188571;28;109047;-65
2023/07/04 01:24:36;;;;;;;6.20;5.70;;;;;;;24.37;51.54;95090.78;6171798;28;109085;-66
2023/07/04 01:27:43;;;;;;;7.20;5.60;;;;;;;24.28;51.77;95086.53;6181966;28;110030;-67
2023/07/04 01:30:48;;;;;;;6.37;5.87;;;;;;;24.21;52.18;95079.03;6176807;28;109543;-66
2023/07/04 01:33:51;;;;;;;6.20;5.60;;;;;;;24.14;52.49;95078.69;6172158;28;109045;-66
2023/07/04 01:36:55;;;;;;;6.47;5.97;;;;;;;24.01;52.79;95083.13;6182588;28;109078;-66
2023/07/04 01:39:58;;;;;;;7.20;6.20;;;;;;;24.00;52.95;95072.75;6164141;28;109077;-65
2023/07/04 01:43:04;;;;;;;6.47;5.97;;;;;;;23.96;53.20;95072.56;6182832;28;110069;-66
2023/07/04 01:46:07;;;;;;;7.13;6.50;;;;;;;23.84;53.46;95073.19;6182586;28;109193;-66
2023/07/04 01:49:11;;;;;;;6.83;6.33;;;;;;;23.83;53.29;95076.97;6191680;28;109109;-70
2023/07/04 01:52:14;;;;;;;7.27;6.67;;;;;;;23.81;53.82;95067.72;6177134;28;109391;-71
2023/07/04 01:55:17;;;;;;;7.60;6.77;;;;;;;23.76;53.86;95071.34;6179210;28;109106;-71
2023/07/04 01:58:21;;;;;;;7.20;6.50;;;;;;;23.86;53.82;95073.69;6187816;28;109925;-70
2023/07/04 02:01:25;;;;;;;6.73;6.10;;;;;;;24.03;53.20;95072.13;6173270;28;108848;-70
2023/07/04 02:04:29;;;;;;;6.93;6.23;;;;;;;24.23;52.76;95076.03;6156200;28;109166;-71
2023/07/04 02:07:32;;;;;;;6.83;6.23;;;;;;;24.26;52.69;95081.53;6180943;28;109289;-70
2023/07/04 02:10:35;;;;;;;6.80;6.20;;;;;;;24.29;52.66;95080.88;6173266;28;109429;-71
2023/07/04 02:13:40;;;;;;;6.90;6.07;;;;;;;24.35;52.32;95081.47;6163719;28;108907;-71
2023/07/04 02:16:43;;;;;;;6.73;6.00;;;;;;;24.41;52.10;95078.34;6151550;28;110221;-71
2023/07/04 02:19:47;;;;;;;6.27;5.67;;;;;;;24.34;52.01;95072.66;6176655;28;109169;-72
2023/07/04 02:22:50;;;;;;;6.87;6.27;;;;;;;24.36;52.12;95070.50;6165683;28;109696;-70
2023/07/04 02:25:54;;;;;;;5.97;5.37;;;;;;;24.36;51.75;95069.69;6180223;28;109043;-69
2023/07/04 02:28:59;;;;;;;6.77;5.73;;;;;;;24.44;51.99;95076.91;6174166;28;109380;-71
2023/07/04 02:32:02;;;;;;;5.80;5.30;;;;;;;24.36;51.68;95080.38;6163813;28;109503;-70
2023/07/04 02:35:06;;;;;;;5.00;4.50;;;;;;;24.22;51.81;95074.47;6163372;28;109067;-71
2023/07/04 02:38:09;;;;;;;5.80;5.30;;;;;;;24.28;51.67;95079.31;6152825;28;109261;-70
2023/07/04 02:41:13;;;;;;;5.13;4.73;;;;;;;24.32;51.34;95074.09;6169773;28;109997;-71
2023/07/04 02:44:18;;;;;;;8.60;5.40;;;;;;;24.40;51.30;95075.97;6163168;28;110044;-71
2023/07/04 02:47:26;;;;;;;5.90;5.40;;;;;;;24.46;51.39;95072.03;6183538;28;109220;-72
2023/07/04 02:50:29;;;;;;;6.47;4.90;;;;;;;24.34;51.36;95078.03;6176808;28;110160;-72
2023/07/04 02:53:32;;;;;;;5.73;5.10;;;;;;;24.11;52.91;95063.31;6178838;28;109164;-72
2023/07/04 02:56:35;;;;;;;5.30;4.80;;;;;;;24.10;52.28;95057.16;6171251;28;109635;-71
2023/07/04 02:59:41;;;;;;;6.50;5.90;;;;;;;23.98;52.63;95075.72;6158689;28;109088;-65
2023/07/04 03:02:44;;;;;;;7.83;5.43;;;;;;;23.92;52.60;95073.53;6199607;28;108832;-67
2023/07/04 03:05:47;;;;;;;6.37;5.67;;;;;;;24.05;52.23;95075.28;6201192;28;109126;-65
2023/07/04 03:08:51;;;;;;;7.63;6.60;;;;;;;24.13;52.02;95077.13;6187298;28;110804;-73
2023/07/04 03:11:55;;;;;;;6.20;5.63;;;;;;;24.23;52.02;95076.81;6164546;28;109329;-65
2023/07/04 03:14:59;;;;;;;40.20;36.60;;;;;;;24.33;52.20;95076.44;6168703;28;109125;-65
2023/07/04 03:18:02;;;;;;;25.23;22.70;;;;;;;24.36;52.07;95070.50;6172777;28;109239;-66
2023/07/04 03:21:10;;;;;;;20.73;18.87;;;;;;;24.46;51.73;95080.03;6174490;28;109083;-65
2023/07/04 03:24:13;;;;;;;21.03;17.80;;;;;;;24.48;52.20;95078.63;6160716;28;109799;-65
2023/07/04 03:27:16;;;;;;;13.67;12.47;;;;;;;24.53;52.01;95082.22;6174638;28;109036;-65
2023/07/04 03:30:20;;;;;;;12.20;10.90;;;;;;;24.48;52.06;95073.25;6161469;28;109060;-67
2023/07/04 03:33:23;;;;;;;9.90;9.00;;;;;;;24.42;52.39;95077.22;6176978;28;109336;-67
2023/07/04 03:36:27;;;;;;;9.73;8.83;;;;;;;24.43;52.16;95070.78;6157528;28;109768;-67
2023/07/04 03:39:30;;;;;;;16.50;14.80;;;;;;;24.49;52.08;95077.50;6161482;28;109041;-67
2023/07/04 03:42:33;;;;;;;20.70;18.90;;;;;;;24.54;52.24;95078.47;6180337;28;112370;-66
2023/07/04 03:45:38;;;;;;;22.53;20.80;;;;;;;24.60;52.00;95079.84;6171098;28;109712;-66
2023/07/04 03:48:42;;;;;;;15.37;13.83;;;;;;;24.62;51.79;95080.31;6178762;28;109718;-65
2023/07/04 03:51:46;;;;;;;13.97;12.87;;;;;;;24.66;51.88;95084.69;6185908;28;109676;-67
2023/07/04 03:54:49;;;;;;;10.93;10.03;;;;;;;24.60;52.29;95087.88;6186109;28;109411;-68
2023/07/04 03:57:53;;;;;;;16.10;12.77;;;;;;;24.56;52.49;95085.06;6176580;28;108840;-67
2023/07/04 04:00:57;;;;;;;12.20;9.90;;;;;;;24.59;52.62;95091.66;6182028;28;109087;-66
2023/07/04 04:04:00;;;;;;;10.83;9.03;;;;;;;24.58;52.48;95087.41;6203109;28;111617;-66
2023/07/04 04:07:04;;;;;;;11.07;9.70;;;;;;;24.60;52.51;95091.34;6189505;28;109131;-67
2023/07/04 04:10:08;;;;;;;39.03;26.20;;;;;;;24.61;54.38;95092.91;6191254;28;109156;-71
2023/07/04 04:13:11;;;;;;;17.13;15.53;;;;;;;24.68;52.80;95087.84;6176018;28;110614;-70
2023/07/04 04:16:16;;;;;;;12.63;10.83;;;;;;;24.71;53.55;95095.25;6180187;28;111739;-71
2023/07/04 04:19:19;;;;;;;10.17;9.17;;;;;;;24.71;53.16;95086.44;6199335;28;109063;-71
2023/07/04 04:22:22;;;;;;;13.63;9.90;;;;;;;24.75;53.52;95096.19;6202890;28;109095;-70
2023/07/04 04:25:25;;;;;;;10.57;9.47;;;;;;;24.77;52.89;95099.31;6203080;28;109196;-71
2023/07/04 04:28:29;;;;;;;10.60;8.67;;;;;;;24.72;53.84;95101.41;6195156;28;109496;-72
2023/07/04 04:31:37;;;;;;;17.07;15.47;;;;;;;24.69;53.70;95102.03;6171432;28;108900;-70
2023/07/04 04:34:40;;;;;;;16.93;15.40;;;;;;;24.66;53.09;95110.66;6196941;28;109216;-72
2023/07/04 04:37:43;;;;;;;26.47;24.20;;;;;;;24.59;53.36;95110.38;6161727;28;110333;-72
2023/07/04 04:40:46;;;;;;;23.60;21.70;;;;;;;24.58;53.59;95109.59;6174472;28;109237;-74
2023/07/04 04:43:50;;;;;;;12.77;11.67;;;;;;;24.58;53.60;95120.31;6172808;28;109026;-71
2023/07/04 04:46:55;;;;;;;12.60;11.60;;;;;;;24.55;54.18;95115.59;6185521;28;110011;-71
2023/07/04 04:50:00;;;;;;;11.60;10.60;;;;;;;24.47;53.64;95114.50;6184528;28;109282;-71
2023/07/04 04:53:03;;;;;;;12.80;10.47;;;;;;;24.52;53.58;95126.13;6183185;28;109705;-70
2023/07/04 04:56:07;;;;;;;10.80;9.70;;;;;;;24.48;53.95;95126.78;6177843;28;109014;-72
2023/07/04 04:59:12;;;;;;;11.73;10.73;;;;;;;24.48;53.94;95123.31;6185380;28;109362;-73
2023/07/04 05:02:16;;;;;;;11.07;10.07;;;;;;;24.49;54.05;95123.00;6185017;28;109052;-72
2023/07/04 05:05:20;;;;;;;11.10;10.03;;;;;;;24.54;53.73;95129.28;6176197;28;109403;-72
2023/07/04 05:08:23;;;;;;;13.43;9.30;;;;;;;24.52;53.76;95131.47;6184098;28;109290;-72
2023/07/04 05:11:26;;;;;;;10.60;9.40;;;;;;;24.44;54.31;95133.88;6185466;28;108849;-72
2023/07/04 05:14:29;;;;;;;9.60;8.70;;;;;;;24.47;54.08;95133.22;6184832;28;111237;-69
2023/07/04 05:17:34;;;;;;;10.00;9.00;;;;;;;24.47;54.20;95130.56;6173636;28;109283;-71
2023/07/04 05:20:38;;;;;;;10.13;9.17;;;;;;;24.37;55.01;95122.09;6207580;28;109404;-67
2023/07/04 05:23:43;;;;;;;9.87;8.80;;;;;;;24.29;55.10;95121.00;6209177;28;109367;-69
2023/07/04 05:26:46;;;;;;;9.73;8.30;;;;;;;24.24;54.90;95121.16;6209233;28;109111;-68
2023/07/04 05:29:49;;;;;;;11.87;10.20;;;;;;;24.27;55.29;95119.75;6198222;28;108929;-69
2023/07/04 05:32:53;;;;;;;10.67;9.57;;;;;;;24.31;55.37;95121.47;6185480;28;109087;-69
2023/07/04 05:36:04;;;;;;;13.50;9.13;;;;;;;24.21;55.78;95124.47;6184373;28;108847;-69
2023/07/04 05:39:07;;;;;;;11.50;8.70;;;;;;;24.22;55.60;95119.91;6179076;28;109076;-69
2023/07/04 05:42:11;;;;;;;9.80;8.90;;;;;;;24.27;55.93;95133.13;6179876;28;109047;-67
2023/07/04 05:45:14;;;;;;;9.10;8.30;;;;;;;24.22;55.94;95122.59;6184062;28;109090;-67
2023/07/04 05:48:18;;;;;;;8.57;7.60;;;;;;;24.29;54.96;95125.56;6187967;28;109135;-69
2023/07/04 05:51:22;;;;;;;10.20;8.30;;;;;;;24.28;55.64;95124.78;6197635;28;110994;-67
2023/07/04 05:54:25;;;;;;;9.23;8.20;;;;;;;24.42;56.62;95127.28;6213237;28;109910;-68
2023/07/04 05:57:31;;;;;;;8.97;8.07;;;;;;;24.46;55.46;95123.63;6212817;28;109260;-67
2023/07/04 06:00:35;;;;;;;9.07;8.13;;;;;;;24.47;55.39;95121.75;6213846;28;108812;-68
2023/07/04 06:03:41;;;;;;;8.63;7.93;;;;;;;24.53;55.97;95122.34;6202772;28;109084;-68
2023/07/04 06:06:46;;;;;;;9.77;7.60;;;;;;;24.56;55.23;95113.69;6213084;28;109413;-68
2023/07/04 06:09:49;;;;;;;7.90;7.20;;;;;;;24.70;54.72;95103.63;6212773;28;109035;-67
2023/07/04 06:12:52;;;;;;;8.90;8.10;;;;;;;24.77;55.76;95111.91;6207882;28;109110;-67
2023/07/04 06:15:56;;;;;;;8.80;8.10;;;;;;;24.85;55.73;95113.75;6207268;28;109155;-67
2023/07/04 06:19:01;;;;;;;10.67;8.30;;;;;;;24.73;56.08;95101.06;6203507;28;110146;-65
2023/07/04 06:22:06;;;;;;;9.37;7.93;;;;;;;24.90;55.41;95113.59;6187511;28;109357;-66
2023/07/04 06:25:09;;;;;;;8.30;7.60;;;;;;;24.91;55.04;95112.50;6178829;28;108979;-65
2023/07/04 06:28:12;;;;;;;9.37;8.03;;;;;;;25.04;54.98;95103.47;6187856;28;109644;-65
2023/07/04 06:31:16;;;;;;;7.77;7.03;;;;;;;25.15;54.15;95106.53;6187987;28;109032;-65
2023/07/04 06:34:21;;;;;;;7.53;6.70;;;;;;;25.17;53.32;95109.69;6188100;28;109037;-66
2023/07/04 06:37:24;;;;;;;8.00;7.23;;;;;;;25.25;53.52;95106.19;6177703;28;109865;-66
2023/07/04 06:40:27;;;;;;;8.10;7.30;;;;;;;25.30;53.64;95105.19;6187709;28;109111;-66
2023/07/04 06:43:33;;;;;;;11.27;8.60;;;;;;;25.40;53.81;95112.91;6188011;28;109062;-67
2023/07/04 06:46:36;;;;;;;37.67;17.10;;;;;;;25.47;54.54;95107.00;6187853;28;109582;-67
2023/07/04 06:49:40;;;;;;;95.40;32.90;;;;;;;25.50;54.83;95101.00;6192543;28;109033;-66
2023/07/04 06:52:43;;;;;;;59.30;23.90;;;;;;;25.50;54.33;95096.41;6211037;28;109184;-66
2023/07/04 06:55:46;;;;;;;39.67;17.37;;;;;;;25.51;53.55;95102.56;6211770;28;109031;-65
2023/07/04 06:58:51;;;;;;;28.30;15.13;;;;;;;25.50;52.81;95096.41;6205369;28;109297;-67
2023/07/04 07:01:56;;;;;;;25.73;13.47;;;;;;;25.49;52.84;95100.22;6212122;28;111813;-66
2023/07/04 07:05:01;;;;;;;24.13;12.83;;;;;;;25.56;52.39;95111.22;6211071;28;109381;-66
2023/07/04 07:08:05;;;;;;;20.73;10.77;;;;;;;25.56;52.61;95100.50;6211686;28;109098;-66
2023/07/04 07:11:10;;;;;;;16.40;9.90;;;;;;;25.56;52.22;95099.72;6202081;28;109208;-66
2023/07/04 07:14:13;;;;;;;12.17;8.67;;;;;;;25.56;51.76;95105.06;6211214;28;109027;-67
2023/07/04 07:17:16;;;;;;;14.70;8.80;;;;;;;25.62;51.74;95109.91;6211662;28;109104;-61
2023/07/04 07:20:21;;;;;;;13.90;8.50;;;;;;;25.83;51.85;95098.38;6191230;28;109608;-61
2023/07/04 07:23:24;;;;;;;15.67;9.43;;;;;;;25.98;51.45;95100.47;6175925;28;109192;-61
2023/07/04 07:26:28;;;;;;;11.60;8.67;;;;;;;26.07;50.81;95103.91;6186876;28;109089;-61
2023/07/04 07:29:31;;;;;;;14.00;9.23;;;;;;;26.14;50.97;95095.31;6186962;28;109029;-61
2023/07/04 07:32:35;;;;;;;11.63;8.87;;;;;;;26.17;50.81;95100.78;6182185;28;109080;-61
2023/07/04 07:35:39;;;;;;;13.70;8.60;;;;;;;26.19;51.04;95095.88;6181576;28;109347;-61
2023/07/04 07:38:43;;;;;;;9.40;8.33;;;;;;;26.22;50.94;95105.97;6186835;28;109506;-61
2023/07/04 07:41:48;;;;;;;10.20;7.83;;;;;;;26.22;50.81;95105.19;6186587;28;109268;-61
2023/07/04 07:44:51;;;;;;;15.27;8.93;;;;;;;26.28;50.71;95103.84;6177309;28;109117;-61
2023/07/04 07:47:54;;;;;;;13.43;8.17;;;;;;;26.32;50.39;95109.31;6186445;28;109092;-61
2023/07/04 07:50:59;;;;;;;11.13;7.80;;;;;;;26.35;50.57;95108.66;6210934;28;109042;-61
2023/07/04 07:54:03;;;;;;;14.70;8.80;;;;;;;26.36;50.82;95113.69;6209664;28;109195;-60
2023/07/04 07:57:07;;;;;;;11.57;8.17;;;;;;;26.41;50.66;95110.03;6199672;28;109144;-61
2023/07/04 08:00:11;;;;;;;8.97;7.63;;;;;;;26.42;50.63;95106.25;6210828;28;109078;-60
2023/07/04 08:03:15;;;;;;;9.50;8.30;;;;;;;26.44;50.64;95112.84;6210373;28;109463;-61
2023/07/04 08:06:24;;;;;;;8.73;7.80;;;;;;;26.47;50.20;95109.47;6208929;28;109090;-65
2023/07/04 08:09:27;;;;;;;8.60;7.70;;;;;;;26.49;50.00;95109.94;6205121;28;108730;-63
2023/07/04 08:12:30;;;;;;;8.17;7.37;;;;;;;26.50;49.95;95108.03;6210500;28;109392;-63
2023/07/04 08:15:33;;;;;;;8.50;7.60;;;;;;;26.54;50.68;95114.28;6210268;28;109037;-63
2023/07/04 08:18:36;;;;;;;11.00;8.10;;;;;;;26.51;49.79;95113.06;6194989;28;109885;-63
2023/07/04 08:21:41;;;;;;;7.50;6.90;;;;;;;26.56;49.90;95112.09;6185338;28;109090;-60
2023/07/04 08:24:44;;;;;;;7.90;7.10;;;;;;;26.58;50.36;95104.47;6185010;28;109071;-60
2023/07/04 08:27:47;;;;;;;8.00;7.00;;;;;;;26.60;50.54;95106.84;6185526;28;109155;-61
2023/07/04 08:30:51;;;;;;;8.00;7.20;;;;;;;26.62;50.22;95105.38;6174902;28;109068;-61
2023/07/04 08:33:54;;;;;;;8.33;7.30;;;;;;;26.60;49.94;95094.19;6185743;28;109678;-61
2023/07/04 08:36:59;;;;;;;8.23;7.23;;;;;;;26.65;49.69;95096.69;6185479;28;109088;-60
2023/07/04 08:40:02;;;;;;;7.50;6.90;;;;;;;26.66;49.86;95102.84;6185402;28;109087;-64
2023/07/04 08:43:07;;;;;;;7.83;7.13;;;;;;;26.65;49.86;95094.00;6174690;28;109043;-64
2023/07/04 08:46:13;;;;;;;7.73;7.03;;;;;;;26.67;50.02;95097.13;6185374;28;108807;-64
2023/07/04 08:49:29;;;;;;;8.13;7.33;;;;;;;26.70;50.16;95093.00;6196365;28;109387;-65
2023/07/04 08:52:41;;;;;;;7.83;7.13;;;;;;;26.67;49.64;95094.44;6201331;28;109729;-65
2023/07/04 08:55:51;;;;;;;9.67;7.20;;;;;;;26.68;49.32;95096.00;6208881;28;109098;-64
2023/07/04 08:59:05;;;;;;;8.90;7.23;;;;;;;26.69;50.05;95086.84;6209883;28;109096;-64
2023/07/04 09:02:54;;;;;;;7.77;7.07;;;;;;;26.69;50.01;95081.47;6209776;28;108994;-64
2023/07/04 09:06:05;;;;;;;10.10;7.80;;;;;;;26.70;50.22;95082.25;6180549;28;109442;-64
2023/07/04 09:09:21;;;;;;;8.53;7.63;;;;;;;26.70;50.22;95074.19;6209967;28;109048;-63
2023/07/04 09:12:35;;;;;;;8.70;7.90;;;;;;;26.70;50.25;95072.28;6209746;28;109091;-63
2023/07/04 09:15:41;;;;;;;10.03;8.67;;;;;;;26.70;49.76;95072.28;6199340;28;109605;-65
2023/07/04 09:18:55;;;;;;;9.10;8.23;;;;;;;26.69;50.27;95078.00;6203823;28;110144;-63
2023/07/04 09:22:07;;;;;;;10.40;9.30;;;;;;;26.69;49.91;95078.00;6185423;28;108988;-63
2023/07/04 09:25:13;;;;;;;9.80;8.80;;;;;;;26.71;50.05;95068.50;6185065;28;109214;-63
2023/07/04 09:28:16;;;;;;;9.47;8.43;;;;;;;26.68;50.40;95071.84;6176221;28;111288;-64
2023/07/04 09:31:21;;;;;;;9.50;8.63;;;;;;;26.71;49.95;95068.50;6189325;28;108936;-64
2023/07/04 09:34:30;;;;;;;9.97;9.00;;;;;;;26.73;50.01;95071.66;6189277;28;110170;-64
2023/07/04 09:37:55;;;;;;;10.13;9.23;;;;;;;26.70;50.25;95066.94;6184648;28;111995;-66
2023/07/04 09:41:00;;;;;;;9.87;9.07;;;;;;;26.71;50.16;95068.50;6186608;28;109068;-65
2023/07/04 09:44:15;;;;;;;10.27;9.47;;;;;;;26.72;50.62;95069.31;6189032;28;109982;-64
2023/07/04 09:47:23;;;;;;;10.00;9.20;;;;;;;26.70;49.96;95064.25;6188479;28;109121;-64
2023/07/04 09:50:29;;;;;;;10.00;9.20;;;;;;;26.69;50.18;95061.88;6178978;28;109075;-68
2023/07/04 09:53:32;;;;;;;10.07;9.17;;;;;;;26.67;50.53;95050.72;6188441;28;108712;-69
2023/07/04 09:56:37;;;;;;;11.57;10.40;;;;;;;26.66;50.53;95051.81;6188597;28;109149;-69
2023/07/04 09:59:40;;;;;;;12.27;11.27;;;;;;;26.63;50.29;95047.91;6187602;28;109091;-70
2023/07/04 10:02:45;;;;;;;12.40;11.40;;;;;;;26.64;50.88;95037.97;6177282;28;110674;-68
2023/07/04 10:05:49;;;;;;;12.07;11.10;;;;;;;26.64;50.76;95052.16;6188355;28;109744;-70
2023/07/04 10:08:55;;;;;;;11.73;10.83;;;;;;;26.65;50.21;95043.00;6188441;28;109173;-69
2023/07/04 10:12:13;;;;;;;11.87;10.87;;;;;;;26.66;50.18;95039.19;6182678;28;108870;-68
2023/07/04 10:15:24;;;;;;;10.70;9.90;;;;;;;26.66;50.40;95044.56;6188122;28;109101;-69
2023/07/04 10:18:30;;;;;;;11.83;10.93;;;;;;;26.64;50.35;95032.59;6188490;28;109345;-69
2023/07/04 10:21:40;;;;;;;10.73;9.93;;;;;;;26.64;50.31;95025.31;6188205;28;109026;-68
2023/07/04 10:24:43;;;;;;;11.47;10.27;;;;;;;26.61;50.45;95025.97;6176868;28;109070;-70
2023/07/04 10:27:50;;;;;;;13.43;12.33;;;;;;;26.60;50.89;95032.47;6188063;28;109173;-69
2023/07/04 10:30:57;;;;;;;12.20;11.20;;;;;;;26.60;50.49;95027.09;6187742;28;110130;-68
2023/07/04 10:34:06;;;;;;;12.57;11.47;;;;;;;26.61;50.96;95020.59;6186814;28;109870;-65
2023/07/04 10:37:13;;;;;;;11.70;10.60;;;;;;;26.59;50.94;95022.84;6182738;28;109956;-68
2023/07/04 10:40:18;;;;;;;12.60;11.60;;;;;;;26.58;51.02;95021.28;6186715;28;109911;-69
2023/07/04 10:43:30;;;;;;;15.07;13.87;;;;;;;26.56;50.86;95015.47;6187592;28;109070;-70
2023/07/04 10:46:43;;;;;;;13.03;11.93;;;;;;;26.58;50.32;95026.63;6177419;28;109485;-67
2023/07/04 10:49:51;;;;;;;12.80;11.80;;;;;;;26.57;50.82;95017.03;6188103;28;110213;-69
2023/07/04 10:52:55;;;;;;;12.60;11.60;;;;;;;26.57;50.73;95008.97;6188187;28;109375;-68
2023/07/04 10:56:08;;;;;;;12.83;11.50;;;;;;;26.56;50.35;95010.09;6187814;28;109100;-69
2023/07/04 10:59:16;;;;;;;12.30;11.20;;;;;;;26.54;50.28;95010.41;6178283;28;109690;-69
2023/07/04 11:02:32;;;;;;;12.00;10.93;;;;;;;26.52;50.66;95003.81;6186419;28;109384;-73
2023/07/04 11:05:40;;;;;;;11.93;10.93;;;;;;;26.52;51.06;94996.53;6187740;28;109522;-74
2023/07/04 11:08:44;;;;;;;13.73;12.73;;;;;;;26.51;50.72;94994.19;6181649;28;109145;-73
2023/07/04 11:11:50;;;;;;;16.23;14.90;;;;;;;26.45;50.69;94988.28;6185499;28;109117;-74
2023/07/04 11:15:00;;;;;;;17.10;15.70;;;;;;;26.45;50.91;94985.59;6189127;28;109023;-73
2023/07/04 11:18:04;;;;;;;16.20;14.80;;;;;;;26.44;51.38;94978.66;6189805;28;109061;-73
2023/07/04 11:21:11;;;;;;;18.50;16.60;;;;;;;26.43;51.11;94984.38;6153821;28;109139;-73
2023/07/04 11:24:17;;;;;;;17.50;16.10;;;;;;;26.37;51.34;94977.63;6164263;28;108960;-73
2023/07/04 11:27:24;;;;;;;16.13;14.87;;;;;;;26.36;50.85;94973.38;6163551;28;109035;-73
2023/07/04 11:30:35;;;;;;;17.10;15.77;;;;;;;26.34;51.51;94970.25;6163422;28;109090;-73
2023/07/04 11:33:42;;;;;;;16.43;14.80;;;;;;;26.34;50.78;94965.66;6152221;28;109020;-73
2023/07/04 11:36:50;;;;;;;15.70;14.23;;;;;;;26.34;50.87;94968.34;6162564;28;109082;-73
2023/07/04 11:39:57;;;;;;;14.77;13.67;;;;;;;26.32;51.28;94962.53;6162575;28;108733;-74
2023/07/04 11:43:05;;;;;;;15.07;13.97;;;;;;;26.32;51.27;94959.84;6152048;28;109219;-72
2023/07/04 11:46:22;;;;;;;14.07;12.80;;;;;;;26.35;51.22;94956.50;6161744;28;109208;-73
2023/07/04 11:49:26;;;;;;;14.30;13.10;;;;;;;26.35;51.25;94955.72;6183378;28;109411;-73
2023/07/04 11:52:32;;;;;;;14.10;13.00;;;;;;;26.35;50.77;94963.78;6211398;28;109125;-72
2023/07/04 11:55:36;;;;;;;15.03;13.73;;;;;;;26.34;50.89;94954.94;6201161;28;109480;-74
2023/07/04 11:58:40;;;;;;;14.17;13.07;;;;;;;26.34;51.27;94962.19;6212940;28;109087;-73
2023/07/04 12:02:12;;;;;;;14.30;13.10;;;;;;;26.32;51.12;94951.03;6210816;28;109047;-72
2023/07/04 12:05:30;;;;;;;13.07;11.93;;;;;;;26.33;50.76;94950.69;6206630;28;109682;-71
2023/07/04 12:08:39;;;;;;;13.20;12.20;;;;;;;26.32;51.04;94953.72;6206852;28;109678;-74
2023/07/04 12:11:44;;;;;;;12.77;11.77;;;;;;;26.30;50.63;94943.31;6210753;28;109172;-68
2023/07/04 12:14:49;;;;;;;12.63;11.63;;;;;;;26.31;50.72;94950.25;6210493;28;109098;-69
2023/07/04 12:17:58;;;;;;;12.57;11.57;;;;;;;26.30;50.86;94945.22;6201515;28;110183;-69
2023/07/04 12:21:02;;;;;;;13.47;12.27;;;;;;;26.30;50.97;94942.53;6186254;28;109077;-70
2023/07/04 12:24:06;;;;;;;12.70;11.70;;;;;;;26.31;50.70;94942.19;6185979;28;110857;-70
2023/07/04 12:27:09;;;;;;;12.23;11.33;;;;;;;26.31;50.58;94941.41;6185994;28;109220;-69
2023/07/04 12:30:14;;;;;;;11.80;10.90;;;;;;;26.32;50.17;94948.34;6175498;28;109170;-69
2023/07/04 12:33:24;;;;;;;11.13;10.13;;;;;;;26.32;50.47;94932.25;6185906;28;109053;-70
2023/07/04 12:36:34;;;;;;;11.63;10.63;;;;;;;26.34;49.93;94933.47;6184859;28;109397;-70
2023/07/04 12:39:43;;;;;;;10.77;9.80;;;;;;;26.33;50.01;94936.50;6179916;28;108789;-68
2023/07/04 12:42:47;;;;;;;11.03;10.03;;;;;;;26.30;49.92;94929.91;6185045;28;109758;-68
2023/07/04 12:45:51;;;;;;;10.00;9.17;;;;;;;26.30;50.47;94923.75;6185630;28;109258;-70
2023/07/04 12:49:00;;;;;;;10.53;9.73;;;;;;;26.30;50.61;94924.53;6188572;28;109089;-69
2023/07/04 12:52:07;;;;;;;10.30;9.57;;;;;;;26.32;50.10;94921.50;6198037;28;109110;-69
2023/07/04 12:55:20;;;;;;;9.60;8.80;;;;;;;26.31;50.37;94920.72;6210046;28;109104;-69
2023/07/04 12:58:26;;;;;;;9.67;8.87;;;;;;;26.31;49.74;94919.94;6210846;28;108845;-69
2023/07/04 13:01:32;;;;;;;10.20;9.40;;;;;;;26.33;49.72;94912.34;6209940;28;109821;-69
2023/07/04 13:04:37;;;;;;;10.97;10.03;;;;;;;26.31;50.00;94911.91;6203648;28;108995;-69
2023/07/04 13:07:44;;;;;;;9.97;9.27;;;;;;;26.30;49.57;94913.03;6214017;28;109865;-69
2023/07/04 13:10:50;;;;;;;9.97;9.27;;;;;;;26.29;49.65;94901.50;6214277;28;109094;-69
2023/07/04 13:14:05;;;;;;;9.77;8.97;;;;;;;26.28;49.72;94911.47;6204465;28;109053;-68
2023/07/04 13:17:10;;;;;;;9.40;8.60;;;;;;;26.28;49.68;94911.47;6213791;28;109105;-70
2023/07/04 13:20:18;;;;;;;11.10;10.10;;;;;;;26.31;50.12;94893.13;6196840;28;108774;-68
2023/07/04 13:23:24;;;;;;;14.20;13.00;;;;;;;26.32;50.20;94897.38;6190053;28;112170;-73
2023/07/04 13:26:32;;;;;;;15.07;13.97;;;;;;;26.27;50.59;94891.13;6177719;28;108912;-73
2023/07/04 13:29:36;;;;;;;15.90;14.60;;;;;;;26.33;49.88;94898.94;6189612;28;109246;-73
2023/07/04 13:32:42;;;;;;;15.13;14.03;;;;;;;26.30;50.32;94897.72;6185820;28;109010;-73
2023/07/04 13:35:49;;;;;;;15.77;14.57;;;;;;;26.31;50.08;94898.50;6184414;28;109049;-74
2023/07/04 13:38:53;;;;;;;15.90;14.60;;;;;;;26.28;50.27;94890.00;6181313;28;109344;-74
2023/07/04 13:42:17;;;;;;;16.20;14.80;;;;;;;26.27;49.97;94887.66;6189446;28;108693;-74
2023/07/04 13:45:20;;;;;;;14.90;13.60;;;;;;;26.30;49.80;94883.50;6189123;28;109099;-74
2023/07/04 13:48:24;;;;;;;14.37;13.37;;;;;;;26.27;50.39;94884.97;6179664;28;109055;-73
2023/07/04 13:51:29;;;;;;;13.40;12.40;;;;;;;26.28;50.05;94886.53;6213143;28;109068;-76
2023/07/04 13:54:32;;;;;;;13.87;12.77;;;;;;;26.26;50.20;94884.19;6213729;28;111727;-75
2023/07/04 13:57:35;;;;;;;14.40;13.30;;;;;;;26.24;50.18;94870.34;6213025;28;109212;-74
2023/07/04 14:00:42;;;;;;;12.93;11.93;;;;;;;26.28;50.00;94873.13;6203507;28;109933;-74
2023/07/04 14:03:48;;;;;;;13.70;12.60;;;;;;;26.28;49.95;94875.81;6211765;28;108971;-75
2023/07/04 14:06:56;;;;;;;13.20;12.20;;;;;;;26.25;50.29;94863.84;6209798;28;108923;-75
2023/07/04 14:10:00;;;;;;;12.30;11.40;;;;;;;26.26;50.07;94864.63;6207931;28;109391;-74
2023/07/04 14:13:04;;;;;;;13.30;12.40;;;;;;;26.28;49.80;94862.38;6207319;28;109101;-75